sensor_id;sensor_type;location;lat;lon;timestamp;temperature;humidity
17066;DHT22;23120;52.336;21.182;2023-05-07T00:01:05;6.80;91.50
17066;DHT22;23120;52.336;21.182;2023-05-07T00:03:32;6.80;92.00
17066;DHT22;23120;52.336;21.182;2023-05-07T00:06:00;6.80;92.00
17066;DHT22;23120;52.336;21.182;2023-05-07T00:08:27;6.80;92.00
17066;DHT22;23120;52.336;21.182;2023-05-07T00:10:54;6.80;91.90
17066;DHT22;23120;52.336;21.182;2023-05-07T00:13:21;6.70;91.90
17066;DHT22;23120;52.336;21.182;2023-05-07T00:15:48;6.70;91.80
17066;DHT22;23120;52.336;21.182;2023-05-07T00:18:14;6.70;92.20
17066;DHT22;23120;52.336;21.182;2023-05-07T00:20:41;6.70;92.20
17066;DHT22;23120;52.336;21.182;2023-05-07T00:23:09;6.70;92.40
17066;DHT22;23120;52.336;21.182;2023-05-07T00:25:36;6.70;92.20
17066;DHT22;23120;52.336;21.182;2023-05-07T00:28:03;6.70;92.50
17066;DHT22;23120;52.336;21.182;2023-05-07T00:30:30;6.70;92.60
17066;DHT22;23120;52.336;21.182;2023-05-07T00:32:57;6.70;92.70
17066;DHT22;23120;52.336;21.182;2023-05-07T00:35:24;6.70;92.40
17066;DHT22;23120;52.336;21.182;2023-05-07T00:37:51;6.70;92.40
17066;DHT22;23120;52.336;21.182;2023-05-07T00:40:19;6.70;92.60
17066;DHT22;23120;52.336;21.182;2023-05-07T00:42:46;6.70;92.70
17066;DHT22;23120;52.336;21.182;2023-05-07T00:45:15;6.70;92.60
17066;DHT22;23120;52.336;21.182;2023-05-07T00:47:43;6.70;92.90
17066;DHT22;23120;52.336;21.182;2023-05-07T00:50:10;6.60;92.80
17066;DHT22;23120;52.336;21.182;2023-05-07T00:52:39;6.60;92.70
17066;DHT22;23120;52.336;21.182;2023-05-07T00:55:07;6.60;92.80
17066;DHT22;23120;52.336;21.182;2023-05-07T00:57:37;6.60;92.60
17066;DHT22;23120;52.336;21.182;2023-05-07T01:00:07;6.60;92.70
17066;DHT22;23120;52.336;21.182;2023-05-07T01:02:35;6.60;92.80
17066;DHT22;23120;52.336;21.182;2023-05-07T01:05:03;6.50;93.00
17066;DHT22;23120;52.336;21.182;2023-05-07T01:07:32;6.60;92.90
17066;DHT22;23120;52.336;21.182;2023-05-07T01:09:59;6.50;93.10
17066;DHT22;23120;52.336;21.182;2023-05-07T01:12:26;6.60;93.20
17066;DHT22;23120;52.336;21.182;2023-05-07T01:14:56;6.50;93.40
17066;DHT22;23120;52.336;21.182;2023-05-07T01:17:23;6.60;93.10
17066;DHT22;23120;52.336;21.182;2023-05-07T01:19:51;6.50;93.60
17066;DHT22;23120;52.336;21.182;2023-05-07T01:22:28;6.50;93.60
17066;DHT22;23120;52.336;21.182;2023-05-07T01:24:57;6.50;94.00
17066;DHT22;23120;52.336;21.182;2023-05-07T01:27:26;6.40;94.00
17066;DHT22;23120;52.336;21.182;2023-05-07T01:29:53;6.50;93.90
17066;DHT22;23120;52.336;21.182;2023-05-07T01:32:24;6.50;93.80
17066;DHT22;23120;52.336;21.182;2023-05-07T01:34:52;6.50;94.00
17066;DHT22;23120;52.336;21.182;2023-05-07T01:37:22;6.40;94.30
17066;DHT22;23120;52.336;21.182;2023-05-07T01:39:49;6.40;93.90
17066;DHT22;23120;52.336;21.182;2023-05-07T01:42:16;6.40;94.00
17066;DHT22;23120;52.336;21.182;2023-05-07T01:44:43;6.40;94.40
17066;DHT22;23120;52.336;21.182;2023-05-07T01:47:11;6.40;94.00
17066;DHT22;23120;52.336;21.182;2023-05-07T01:49:39;6.40;94.10
17066;DHT22;23120;52.336;21.182;2023-05-07T01:52:06;6.40;94.00
17066;DHT22;23120;52.336;21.182;2023-05-07T01:54:35;6.40;94.30
17066;DHT22;23120;52.336;21.182;2023-05-07T01:57:02;6.40;94.20
17066;DHT22;23120;52.336;21.182;2023-05-07T01:59:30;6.40;94.40
17066;DHT22;23120;52.336;21.182;2023-05-07T02:01:57;6.30;94.30
17066;DHT22;23120;52.336;21.182;2023-05-07T02:04:24;6.30;94.30
17066;DHT22;23120;52.336;21.182;2023-05-07T02:06:52;6.30;94.30
17066;DHT22;23120;52.336;21.182;2023-05-07T02:09:20;6.40;94.40
17066;DHT22;23120;52.336;21.182;2023-05-07T02:11:50;6.30;94.50
17066;DHT22;23120;52.336;21.182;2023-05-07T02:14:18;6.30;94.30
17066;DHT22;23120;52.336;21.182;2023-05-07T02:16:46;6.30;94.30
17066;DHT22;23120;52.336;21.182;2023-05-07T02:19:14;6.30;94.80
17066;DHT22;23120;52.336;21.182;2023-05-07T02:21:41;6.30;94.40
17066;DHT22;23120;52.336;21.182;2023-05-07T02:24:08;6.30;94.40
17066;DHT22;23120;52.336;21.182;2023-05-07T02:26:36;6.20;94.30
17066;DHT22;23120;52.336;21.182;2023-05-07T02:29:07;6.30;94.50
17066;DHT22;23120;52.336;21.182;2023-05-07T02:31:34;6.20;94.70
17066;DHT22;23120;52.336;21.182;2023-05-07T02:34:01;6.20;94.90
17066;DHT22;23120;52.336;21.182;2023-05-07T02:36:28;6.20;94.90
17066;DHT22;23120;52.336;21.182;2023-05-07T02:39:02;6.10;94.90
17066;DHT22;23120;52.336;21.182;2023-05-07T02:41:29;6.20;94.90
17066;DHT22;23120;52.336;21.182;2023-05-07T02:43:56;6.20;95.30
17066;DHT22;23120;52.336;21.182;2023-05-07T02:46:25;6.10;95.30
17066;DHT22;23120;52.336;21.182;2023-05-07T02:48:59;6.10;95.10
17066;DHT22;23120;52.336;21.182;2023-05-07T02:51:26;6.10;95.10
17066;DHT22;23120;52.336;21.182;2023-05-07T02:53:55;6.10;95.30
17066;DHT22;23120;52.336;21.182;2023-05-07T02:56:22;6.10;95.20
17066;DHT22;23120;52.336;21.182;2023-05-07T02:58:49;6.10;95.40
17066;DHT22;23120;52.336;21.182;2023-05-07T03:01:18;6.10;95.20
17066;DHT22;23120;52.336;21.182;2023-05-07T03:03:54;6.00;95.30
17066;DHT22;23120;52.336;21.182;2023-05-07T03:06:22;6.10;95.40
17066;DHT22;23120;52.336;21.182;2023-05-07T03:08:49;6.00;95.40
17066;DHT22;23120;52.336;21.182;2023-05-07T03:11:15;6.00;95.40
17066;DHT22;23120;52.336;21.182;2023-05-07T03:13:42;6.00;95.50
17066;DHT22;23120;52.336;21.182;2023-05-07T03:16:09;6.00;95.30
17066;DHT22;23120;52.336;21.182;2023-05-07T03:18:36;6.10;95.80
17066;DHT22;23120;52.336;21.182;2023-05-07T03:21:04;6.10;95.60
17066;DHT22;23120;52.336;21.182;2023-05-07T03:23:31;6.00;95.40
17066;DHT22;23120;52.336;21.182;2023-05-07T03:25:58;6.00;95.60
17066;DHT22;23120;52.336;21.182;2023-05-07T03:28:25;6.10;95.90
17066;DHT22;23120;52.336;21.182;2023-05-07T03:30:57;6.00;95.80
17066;DHT22;23120;52.336;21.182;2023-05-07T03:33:24;6.00;95.50
17066;DHT22;23120;52.336;21.182;2023-05-07T03:35:51;6.00;95.50
17066;DHT22;23120;52.336;21.182;2023-05-07T03:38:23;6.00;95.60
17066;DHT22;23120;52.336;21.182;2023-05-07T03:40:50;6.10;96.00
17066;DHT22;23120;52.336;21.182;2023-05-07T03:43:17;6.10;95.80
17066;DHT22;23120;52.336;21.182;2023-05-07T03:45:49;6.00;96.10
17066;DHT22;23120;52.336;21.182;2023-05-07T03:48:21;6.10;95.80
17066;DHT22;23120;52.336;21.182;2023-05-07T03:50:50;6.00;95.90
17066;DHT22;23120;52.336;21.182;2023-05-07T03:53:19;6.10;96.00
17066;DHT22;23120;52.336;21.182;2023-05-07T03:55:47;6.10;95.70
17066;DHT22;23120;52.336;21.182;2023-05-07T03:58:14;6.10;96.00
17066;DHT22;23120;52.336;21.182;2023-05-07T04:00:41;6.10;95.70
17066;DHT22;23120;52.336;21.182;2023-05-07T04:03:19;6.10;95.80
17066;DHT22;23120;52.336;21.182;2023-05-07T04:05:46;6.10;95.90
17066;DHT22;23120;52.336;21.182;2023-05-07T04:08:13;6.20;95.90
17066;DHT22;23120;52.336;21.182;2023-05-07T04:10:46;6.10;96.10
17066;DHT22;23120;52.336;21.182;2023-05-07T04:13:13;6.20;96.30
17066;DHT22;23120;52.336;21.182;2023-05-07T04:15:41;6.20;96.10
17066;DHT22;23120;52.336;21.182;2023-05-07T04:18:12;6.20;96.60
17066;DHT22;23120;52.336;21.182;2023-05-07T04:20:40;6.20;96.30
17066;DHT22;23120;52.336;21.182;2023-05-07T04:23:11;6.20;96.40
17066;DHT22;23120;52.336;21.182;2023-05-07T04:25:38;6.20;96.40
17066;DHT22;23120;52.336;21.182;2023-05-07T04:28:12;6.20;96.50
17066;DHT22;23120;52.336;21.182;2023-05-07T04:30:40;6.20;96.40
17066;DHT22;23120;52.336;21.182;2023-05-07T04:33:07;6.20;96.40
17066;DHT22;23120;52.336;21.182;2023-05-07T04:35:36;6.20;96.40
17066;DHT22;23120;52.336;21.182;2023-05-07T04:38:04;6.20;96.70
17066;DHT22;23120;52.336;21.182;2023-05-07T04:40:31;6.20;96.80
17066;DHT22;23120;52.336;21.182;2023-05-07T04:43:00;6.20;96.50
17066;DHT22;23120;52.336;21.182;2023-05-07T04:45:32;6.20;96.60
17066;DHT22;23120;52.336;21.182;2023-05-07T04:47:59;6.20;96.40
17066;DHT22;23120;52.336;21.182;2023-05-07T04:50:26;6.30;96.50
17066;DHT22;23120;52.336;21.182;2023-05-07T04:52:57;6.30;96.80
17066;DHT22;23120;52.336;21.182;2023-05-07T04:55:24;6.30;97.20
17066;DHT22;23120;52.336;21.182;2023-05-07T04:57:52;6.30;96.90
17066;DHT22;23120;52.336;21.182;2023-05-07T05:00:20;6.30;96.70
17066;DHT22;23120;52.336;21.182;2023-05-07T05:02:50;6.30;96.60
17066;DHT22;23120;52.336;21.182;2023-05-07T05:05:19;6.30;96.80
17066;DHT22;23120;52.336;21.182;2023-05-07T05:07:49;6.30;96.70
17066;DHT22;23120;52.336;21.182;2023-05-07T05:10:17;6.40;96.80
17066;DHT22;23120;52.336;21.182;2023-05-07T05:12:44;6.40;97.00
17066;DHT22;23120;52.336;21.182;2023-05-07T05:15:12;6.40;97.10
17066;DHT22;23120;52.336;21.182;2023-05-07T05:17:39;6.40;97.10
17066;DHT22;23120;52.336;21.182;2023-05-07T05:20:09;6.40;97.30
17066;DHT22;23120;52.336;21.182;2023-05-07T05:22:38;6.50;97.20
17066;DHT22;23120;52.336;21.182;2023-05-07T05:25:07;6.50;97.20
17066;DHT22;23120;52.336;21.182;2023-05-07T05:27:34;6.50;96.90
17066;DHT22;23120;52.336;21.182;2023-05-07T05:30:01;6.50;97.00
17066;DHT22;23120;52.336;21.182;2023-05-07T05:32:30;6.50;97.20
17066;DHT22;23120;52.336;21.182;2023-05-07T05:34:57;6.50;97.00
17066;DHT22;23120;52.336;21.182;2023-05-07T05:37:25;6.60;96.90
17066;DHT22;23120;52.336;21.182;2023-05-07T05:39:53;6.60;96.90
17066;DHT22;23120;52.336;21.182;2023-05-07T05:42:21;6.60;96.90
17066;DHT22;23120;52.336;21.182;2023-05-07T05:44:48;6.60;96.80
17066;DHT22;23120;52.336;21.182;2023-05-07T05:47:15;6.60;96.80
17066;DHT22;23120;52.336;21.182;2023-05-07T05:49:42;6.70;96.90
17066;DHT22;23120;52.336;21.182;2023-05-07T05:52:12;6.70;96.90
17066;DHT22;23120;52.336;21.182;2023-05-07T05:54:41;6.70;97.00
17066;DHT22;23120;52.336;21.182;2023-05-07T05:57:08;6.70;96.70
17066;DHT22;23120;52.336;21.182;2023-05-07T05:59:35;6.70;96.90
17066;DHT22;23120;52.336;21.182;2023-05-07T06:02:02;6.70;96.70
17066;DHT22;23120;52.336;21.182;2023-05-07T06:04:29;6.70;96.80
17066;DHT22;23120;52.336;21.182;2023-05-07T06:06:57;6.70;96.90
17066;DHT22;23120;52.336;21.182;2023-05-07T06:09:25;6.80;96.70
17066;DHT22;23120;52.336;21.182;2023-05-07T06:11:53;6.80;96.80
17066;DHT22;23120;52.336;21.182;2023-05-07T06:14:20;6.80;97.00
17066;DHT22;23120;52.336;21.182;2023-05-07T06:16:47;6.90;97.20
17066;DHT22;23120;52.336;21.182;2023-05-07T06:19:14;6.90;96.80
17066;DHT22;23120;52.336;21.182;2023-05-07T06:21:43;6.90;97.00
17066;DHT22;23120;52.336;21.182;2023-05-07T06:24:11;7.00;96.80
17066;DHT22;23120;52.336;21.182;2023-05-07T06:26:38;7.00;96.90
17066;DHT22;23120;52.336;21.182;2023-05-07T06:29:07;7.10;96.80
17066;DHT22;23120;52.336;21.182;2023-05-07T06:31:34;7.10;97.10
17066;DHT22;23120;52.336;21.182;2023-05-07T06:34:04;7.20;96.80
17066;DHT22;23120;52.336;21.182;2023-05-07T06:36:37;7.20;96.70
17066;DHT22;23120;52.336;21.182;2023-05-07T06:39:13;7.20;96.80
17066;DHT22;23120;52.336;21.182;2023-05-07T06:41:40;7.30;97.00
17066;DHT22;23120;52.336;21.182;2023-05-07T06:44:18;7.40;96.90
17066;DHT22;23120;52.336;21.182;2023-05-07T06:46:58;7.40;96.80
17066;DHT22;23120;52.336;21.182;2023-05-07T06:49:25;7.40;96.80
17066;DHT22;23120;52.336;21.182;2023-05-07T06:51:53;7.50;96.60
17066;DHT22;23120;52.336;21.182;2023-05-07T06:54:20;7.50;96.50
17066;DHT22;23120;52.336;21.182;2023-05-07T06:56:48;7.50;96.40
17066;DHT22;23120;52.336;21.182;2023-05-07T06:59:15;7.50;96.30
17066;DHT22;23120;52.336;21.182;2023-05-07T07:01:43;7.60;96.20
17066;DHT22;23120;52.336;21.182;2023-05-07T07:04:11;7.60;96.00
17066;DHT22;23120;52.336;21.182;2023-05-07T07:06:40;7.70;96.00
17066;DHT22;23120;52.336;21.182;2023-05-07T07:09:10;7.70;96.30
17066;DHT22;23120;52.336;21.182;2023-05-07T07:11:37;7.70;96.00
17066;DHT22;23120;52.336;21.182;2023-05-07T07:14:05;7.80;96.10
17066;DHT22;23120;52.336;21.182;2023-05-07T07:16:37;7.80;96.10
17066;DHT22;23120;52.336;21.182;2023-05-07T07:19:05;7.80;96.10
17066;DHT22;23120;52.336;21.182;2023-05-07T07:21:33;7.90;95.90
17066;DHT22;23120;52.336;21.182;2023-05-07T07:24:00;8.00;96.10
17066;DHT22;23120;52.336;21.182;2023-05-07T07:26:27;8.00;95.90
17066;DHT22;23120;52.336;21.182;2023-05-07T07:28:54;8.10;95.80
17066;DHT22;23120;52.336;21.182;2023-05-07T07:31:22;8.10;95.60
17066;DHT22;23120;52.336;21.182;2023-05-07T07:33:50;8.20;95.60
17066;DHT22;23120;52.336;21.182;2023-05-07T07:36:18;8.30;95.70
17066;DHT22;23120;52.336;21.182;2023-05-07T07:38:46;8.40;95.60
17066;DHT22;23120;52.336;21.182;2023-05-07T07:41:13;8.40;95.20
17066;DHT22;23120;52.336;21.182;2023-05-07T07:43:40;8.50;94.90
17066;DHT22;23120;52.336;21.182;2023-05-07T07:46:07;8.50;94.90
17066;DHT22;23120;52.336;21.182;2023-05-07T07:48:35;8.60;94.90
17066;DHT22;23120;52.336;21.182;2023-05-07T07:51:02;8.70;95.00
17066;DHT22;23120;52.336;21.182;2023-05-07T07:53:30;8.80;94.70
17066;DHT22;23120;52.336;21.182;2023-05-07T07:55:57;8.90;94.30
17066;DHT22;23120;52.336;21.182;2023-05-07T07:58:27;8.90;94.10
17066;DHT22;23120;52.336;21.182;2023-05-07T08:00:54;9.00;94.30
17066;DHT22;23120;52.336;21.182;2023-05-07T08:03:23;9.10;94.20
17066;DHT22;23120;52.336;21.182;2023-05-07T08:05:53;9.20;94.00
17066;DHT22;23120;52.336;21.182;2023-05-07T08:08:21;9.30;93.90
17066;DHT22;23120;52.336;21.182;2023-05-07T08:10:50;9.30;93.50
17066;DHT22;23120;52.336;21.182;2023-05-07T08:13:30;9.40;93.60
17066;DHT22;23120;52.336;21.182;2023-05-07T08:15:58;9.50;93.60
17066;DHT22;23120;52.336;21.182;2023-05-07T08:18:25;9.50;93.20
17066;DHT22;23120;52.336;21.182;2023-05-07T08:20:54;9.60;92.80
17066;DHT22;23120;52.336;21.182;2023-05-07T08:23:24;9.60;92.30
17066;DHT22;23120;52.336;21.182;2023-05-07T08:25:53;9.70;92.40
17066;DHT22;23120;52.336;21.182;2023-05-07T08:28:20;9.70;92.60
17066;DHT22;23120;52.336;21.182;2023-05-07T08:30:47;9.80;92.70
17066;DHT22;23120;52.336;21.182;2023-05-07T08:33:15;9.90;92.70
17066;DHT22;23120;52.336;21.182;2023-05-07T08:35:42;10.00;92.00
17066;DHT22;23120;52.336;21.182;2023-05-07T08:38:10;10.10;92.00
17066;DHT22;23120;52.336;21.182;2023-05-07T08:40:39;10.20;91.20
17066;DHT22;23120;52.336;21.182;2023-05-07T08:43:13;10.20;91.50
17066;DHT22;23120;52.336;21.182;2023-05-07T08:45:45;10.40;91.60
17066;DHT22;23120;52.336;21.182;2023-05-07T08:48:16;10.50;91.70
17066;DHT22;23120;52.336;21.182;2023-05-07T08:50:48;10.60;91.60
17066;DHT22;23120;52.336;21.182;2023-05-07T08:53:16;10.70;91.30
17066;DHT22;23120;52.336;21.182;2023-05-07T08:55:45;10.80;91.00
17066;DHT22;23120;52.336;21.182;2023-05-07T08:58:14;10.90;90.70
17066;DHT22;23120;52.336;21.182;2023-05-07T09:00:42;10.90;89.30
17066;DHT22;23120;52.336;21.182;2023-05-07T09:03:10;11.00;89.20
17066;DHT22;23120;52.336;21.182;2023-05-07T09:05:40;11.10;89.70
17066;DHT22;23120;52.336;21.182;2023-05-07T09:08:08;11.20;89.80
17066;DHT22;23120;52.336;21.182;2023-05-07T09:10:37;11.20;88.60
17066;DHT22;23120;52.336;21.182;2023-05-07T09:13:04;11.30;88.00
17066;DHT22;23120;52.336;21.182;2023-05-07T09:15:33;11.30;87.40
17066;DHT22;23120;52.336;21.182;2023-05-07T09:18:00;11.30;87.80
17066;DHT22;23120;52.336;21.182;2023-05-07T09:20:30;11.40;88.10
17066;DHT22;23120;52.336;21.182;2023-05-07T09:22:57;11.50;88.50
17066;DHT22;23120;52.336;21.182;2023-05-07T09:25:29;11.60;88.20
17066;DHT22;23120;52.336;21.182;2023-05-07T09:27:58;11.70;88.10
17066;DHT22;23120;52.336;21.182;2023-05-07T09:30:27;11.80;88.10
17066;DHT22;23120;52.336;21.182;2023-05-07T09:33:46;12.00;87.90
17066;DHT22;23120;52.336;21.182;2023-05-07T09:36:13;12.30;87.50
17066;DHT22;23120;52.336;21.182;2023-05-07T09:38:42;12.40;87.30
17066;DHT22;23120;52.336;21.182;2023-05-07T09:41:11;12.50;86.80
17066;DHT22;23120;52.336;21.182;2023-05-07T09:43:55;12.70;86.60
17066;DHT22;23120;52.336;21.182;2023-05-07T09:46:30;12.90;84.70
17066;DHT22;23120;52.336;21.182;2023-05-07T09:49:02;13.00;84.40
17066;DHT22;23120;52.336;21.182;2023-05-07T09:51:38;13.10;84.70
17066;DHT22;23120;52.336;21.182;2023-05-07T09:54:07;13.30;84.00
17066;DHT22;23120;52.336;21.182;2023-05-07T09:56:36;13.50;83.70
17066;DHT22;23120;52.336;21.182;2023-05-07T09:59:05;13.60;83.30
17066;DHT22;23120;52.336;21.182;2023-05-07T10:01:36;13.80;83.80
17066;DHT22;23120;52.336;21.182;2023-05-07T10:04:05;14.00;83.50
17066;DHT22;23120;52.336;21.182;2023-05-07T10:06:38;14.10;81.60
17066;DHT22;23120;52.336;21.182;2023-05-07T10:09:06;14.10;81.90
17066;DHT22;23120;52.336;21.182;2023-05-07T10:11:34;14.20;80.30
17066;DHT22;23120;52.336;21.182;2023-05-07T10:14:02;14.20;78.80
17066;DHT22;23120;52.336;21.182;2023-05-07T10:16:34;14.10;76.50
17066;DHT22;23120;52.336;21.182;2023-05-07T10:19:11;14.10;77.60
17066;DHT22;23120;52.336;21.182;2023-05-07T10:21:48;14.10;77.70
17066;DHT22;23120;52.336;21.182;2023-05-07T10:24:20;14.10;77.70
17066;DHT22;23120;52.336;21.182;2023-05-07T10:26:50;14.10;77.40
17066;DHT22;23120;52.336;21.182;2023-05-07T10:29:25;14.20;76.90
17066;DHT22;23120;52.336;21.182;2023-05-07T10:32:08;14.20;77.40
17066;DHT22;23120;52.336;21.182;2023-05-07T10:34:44;14.30;77.60
17066;DHT22;23120;52.336;21.182;2023-05-07T10:37:13;14.40;77.40
17066;DHT22;23120;52.336;21.182;2023-05-07T10:39:49;14.40;77.10
17066;DHT22;23120;52.336;21.182;2023-05-07T10:42:35;14.40;75.90
17066;DHT22;23120;52.336;21.182;2023-05-07T10:45:13;14.40;75.80
17066;DHT22;23120;52.336;21.182;2023-05-07T10:48:09;14.50;74.40
17066;DHT22;23120;52.336;21.182;2023-05-07T10:50:40;14.40;74.00
17066;DHT22;23120;52.336;21.182;2023-05-07T10:53:23;14.30;71.00
17066;DHT22;23120;52.336;21.182;2023-05-07T10:56:26;14.40;73.50
17066;DHT22;23120;52.336;21.182;2023-05-07T10:59:34;14.40;73.00
17066;DHT22;23120;52.336;21.182;2023-05-07T11:02:18;14.40;72.60
17066;DHT22;23120;52.336;21.182;2023-05-07T11:05:21;14.40;73.40
17066;DHT22;23120;52.336;21.182;2023-05-07T11:08:24;14.40;70.70
17066;DHT22;23120;52.336;21.182;2023-05-07T11:11:13;14.30;73.10
17066;DHT22;23120;52.336;21.182;2023-05-07T11:14:11;14.40;72.70
17066;DHT22;23120;52.336;21.182;2023-05-07T11:16:45;14.40;73.60
17066;DHT22;23120;52.336;21.182;2023-05-07T11:19:51;14.40;73.50
17066;DHT22;23120;52.336;21.182;2023-05-07T11:22:37;14.40;72.90
17066;DHT22;23120;52.336;21.182;2023-05-07T11:25:17;14.30;69.30
17066;DHT22;23120;52.336;21.182;2023-05-07T11:28:07;14.20;68.40
17066;DHT22;23120;52.336;21.182;2023-05-07T11:30:38;14.10;68.90
17066;DHT22;23120;52.336;21.182;2023-05-07T11:33:10;14.00;68.80
17066;DHT22;23120;52.336;21.182;2023-05-07T11:35:39;13.90;69.20
17066;DHT22;23120;52.336;21.182;2023-05-07T11:38:12;13.90;70.00
17066;DHT22;23120;52.336;21.182;2023-05-07T11:40:55;13.80;69.40
17066;DHT22;23120;52.336;21.182;2023-05-07T11:43:22;13.80;69.60
17066;DHT22;23120;52.336;21.182;2023-05-07T11:45:50;13.90;70.90
17066;DHT22;23120;52.336;21.182;2023-05-07T11:48:17;13.90;71.40
17066;DHT22;23120;52.336;21.182;2023-05-07T11:50:54;13.90;70.20
17066;DHT22;23120;52.336;21.182;2023-05-07T11:53:27;13.90;70.20
17066;DHT22;23120;52.336;21.182;2023-05-07T11:55:57;13.80;70.00
17066;DHT22;23120;52.336;21.182;2023-05-07T11:58:24;13.90;69.60
17066;DHT22;23120;52.336;21.182;2023-05-07T12:00:53;13.80;69.10
17066;DHT22;23120;52.336;21.182;2023-05-07T12:03:20;13.90;69.90
17066;DHT22;23120;52.336;21.182;2023-05-07T12:05:47;14.00;70.60
17066;DHT22;23120;52.336;21.182;2023-05-07T12:08:14;14.10;71.00
17066;DHT22;23120;52.336;21.182;2023-05-07T12:10:41;14.20;71.60
17066;DHT22;23120;52.336;21.182;2023-05-07T12:13:15;14.40;71.80
17066;DHT22;23120;52.336;21.182;2023-05-07T12:15:42;14.50;72.00
17066;DHT22;23120;52.336;21.182;2023-05-07T12:18:09;14.70;71.90
17066;DHT22;23120;52.336;21.182;2023-05-07T12:20:37;14.90;72.20
17066;DHT22;23120;52.336;21.182;2023-05-07T12:23:05;15.00;72.20
17066;DHT22;23120;52.336;21.182;2023-05-07T12:25:45;15.20;72.30
17066;DHT22;23120;52.336;21.182;2023-05-07T12:28:15;15.30;72.40
17066;DHT22;23120;52.336;21.182;2023-05-07T12:30:51;15.50;71.80
17066;DHT22;23120;52.336;21.182;2023-05-07T12:33:24;15.60;71.20
17066;DHT22;23120;52.336;21.182;2023-05-07T12:35:54;15.70;71.10
17066;DHT22;23120;52.336;21.182;2023-05-07T12:38:21;15.80;69.40
17066;DHT22;23120;52.336;21.182;2023-05-07T12:40:50;15.90;69.80
17066;DHT22;23120;52.336;21.182;2023-05-07T12:43:19;16.10;70.30
17066;DHT22;23120;52.336;21.182;2023-05-07T12:45:48;16.20;70.30
17066;DHT22;23120;52.336;21.182;2023-05-07T12:48:16;16.40;69.30
17066;DHT22;23120;52.336;21.182;2023-05-07T12:50:43;16.40;67.80
17066;DHT22;23120;52.336;21.182;2023-05-07T12:53:11;16.40;67.70
17066;DHT22;23120;52.336;21.182;2023-05-07T12:56:04;16.50;68.50
17066;DHT22;23120;52.336;21.182;2023-05-07T12:58:58;16.60;67.70
17066;DHT22;23120;52.336;21.182;2023-05-07T13:01:29;16.70;68.40
17066;DHT22;23120;52.336;21.182;2023-05-07T13:04:03;16.80;68.50
17066;DHT22;23120;52.336;21.182;2023-05-07T13:06:31;16.90;68.80
17066;DHT22;23120;52.336;21.182;2023-05-07T13:08:58;17.10;68.20
17066;DHT22;23120;52.336;21.182;2023-05-07T13:11:27;17.20;63.90
17066;DHT22;23120;52.336;21.182;2023-05-07T13:13:59;17.20;64.90
17066;DHT22;23120;52.336;21.182;2023-05-07T13:16:30;17.40;65.10
17066;DHT22;23120;52.336;21.182;2023-05-07T13:18:57;17.60;66.00
17066;DHT22;23120;52.336;21.182;2023-05-07T13:21:24;17.70;67.20
17066;DHT22;23120;52.336;21.182;2023-05-07T13:23:52;18.00;65.80
17066;DHT22;23120;52.336;21.182;2023-05-07T13:26:19;18.10;65.80
17066;DHT22;23120;52.336;21.182;2023-05-07T13:28:47;18.30;65.80
17066;DHT22;23120;52.336;21.182;2023-05-07T13:31:16;18.50;63.80
17066;DHT22;23120;52.336;21.182;2023-05-07T13:33:44;18.50;62.00
17066;DHT22;23120;52.336;21.182;2023-05-07T13:36:11;18.50;61.80
17066;DHT22;23120;52.336;21.182;2023-05-07T13:38:39;18.60;62.30
17066;DHT22;23120;52.336;21.182;2023-05-07T13:41:08;18.70;62.90
17066;DHT22;23120;52.336;21.182;2023-05-07T13:43:38;18.80;62.90
17066;DHT22;23120;52.336;21.182;2023-05-07T13:46:05;18.90;61.70
17066;DHT22;23120;52.336;21.182;2023-05-07T13:48:34;19.00;63.30
17066;DHT22;23120;52.336;21.182;2023-05-07T13:51:00;19.10;62.90
17066;DHT22;23120;52.336;21.182;2023-05-07T13:53:27;19.30;63.70
17066;DHT22;23120;52.336;21.182;2023-05-07T13:55:55;19.40;60.60
17066;DHT22;23120;52.336;21.182;2023-05-07T13:58:22;19.50;60.70
17066;DHT22;23120;52.336;21.182;2023-05-07T14:00:49;19.60;58.40
17066;DHT22;23120;52.336;21.182;2023-05-07T14:03:16;19.60;58.30
17066;DHT22;23120;52.336;21.182;2023-05-07T14:05:46;19.70;59.40
17066;DHT22;23120;52.336;21.182;2023-05-07T14:08:13;19.80;59.30
17066;DHT22;23120;52.336;21.182;2023-05-07T14:10:41;20.00;59.30
17066;DHT22;23120;52.336;21.182;2023-05-07T14:13:07;20.10;58.00
17066;DHT22;23120;52.336;21.182;2023-05-07T14:15:34;20.20;58.00
17066;DHT22;23120;52.336;21.182;2023-05-07T14:18:02;20.40;57.10
17066;DHT22;23120;52.336;21.182;2023-05-07T14:20:29;20.40;56.10
17066;DHT22;23120;52.336;21.182;2023-05-07T14:22:58;20.50;57.40
17066;DHT22;23120;52.336;21.182;2023-05-07T14:25:25;20.60;56.60
17066;DHT22;23120;52.336;21.182;2023-05-07T14:27:52;20.70;56.80
17066;DHT22;23120;52.336;21.182;2023-05-07T14:30:19;20.90;57.80
17066;DHT22;23120;52.336;21.182;2023-05-07T14:32:48;21.10;58.70
17066;DHT22;23120;52.336;21.182;2023-05-07T14:35:21;21.30;59.00
17066;DHT22;23120;52.336;21.182;2023-05-07T14:37:52;21.40;57.30
17066;DHT22;23120;52.336;21.182;2023-05-07T14:40:22;21.60;56.10
17066;DHT22;23120;52.336;21.182;2023-05-07T14:42:57;21.80;57.10
17066;DHT22;23120;52.336;21.182;2023-05-07T14:45:30;21.90;56.90
17066;DHT22;23120;52.336;21.182;2023-05-07T14:48:05;21.90;55.00
17066;DHT22;23120;52.336;21.182;2023-05-07T14:50:40;21.90;53.90
17066;DHT22;23120;52.336;21.182;2023-05-07T14:53:08;21.90;54.70
17066;DHT22;23120;52.336;21.182;2023-05-07T14:55:50;22.10;55.20
17066;DHT22;23120;52.336;21.182;2023-05-07T14:58:17;22.20;55.30
17066;DHT22;23120;52.336;21.182;2023-05-07T15:00:44;22.30;55.20
17066;DHT22;23120;52.336;21.182;2023-05-07T15:03:11;22.50;56.00
17066;DHT22;23120;52.336;21.182;2023-05-07T15:05:41;22.70;54.80
17066;DHT22;23120;52.336;21.182;2023-05-07T15:08:11;22.80;55.00
17066;DHT22;23120;52.336;21.182;2023-05-07T15:10:38;22.90;55.10
17066;DHT22;23120;52.336;21.182;2023-05-07T15:13:12;23.10;55.10
17066;DHT22;23120;52.336;21.182;2023-05-07T15:15:42;23.10;53.20
17066;DHT22;23120;52.336;21.182;2023-05-07T15:18:10;23.10;53.80
17066;DHT22;23120;52.336;21.182;2023-05-07T15:20:41;23.20;53.40
17066;DHT22;23120;52.336;21.182;2023-05-07T15:23:10;23.40;54.40
17066;DHT22;23120;52.336;21.182;2023-05-07T15:25:40;23.50;53.80
17066;DHT22;23120;52.336;21.182;2023-05-07T15:28:30;23.60;53.20
17066;DHT22;23120;52.336;21.182;2023-05-07T15:31:07;23.60;53.70
17066;DHT22;23120;52.336;21.182;2023-05-07T15:33:34;23.80;54.50
17066;DHT22;23120;52.336;21.182;2023-05-07T15:36:05;23.90;54.30
17066;DHT22;23120;52.336;21.182;2023-05-07T15:38:36;23.80;49.70
17066;DHT22;23120;52.336;21.182;2023-05-07T15:41:03;23.70;50.70
17066;DHT22;23120;52.336;21.182;2023-05-07T15:43:44;23.80;53.00